Time;durP1;ratioP1;P1;durP2;ratioP2;P2;SDS_P1;SDS_P2;PMS_P1;PMS_P2;Temp;Humidity;BMP_temperature;BMP_pressure;BME280_temperature;BME280_humidity;BME280_pressure;Samples;Min_cycle;Max_cycle;Signal;HPM_P1;HPM_P2
2023/03/13 00:00:15;;;;;;;22.80;8.85;;;;;;;4.89;55.80;98028.47;4972207;28;20483;-67
2023/03/13 00:02:44;;;;;;;19.20;7.70;;;;;;;4.94;56.29;98043.97;4971820;28;20082;-67
2023/03/13 00:05:12;;;;;;;11.98;6.10;;;;;;;4.93;55.64;98021.44;4982837;28;20363;-67
2023/03/13 00:07:37;;;;;;;23.65;8.77;;;;;;;4.94;55.58;98020.34;4990363;28;20039;-68
2023/03/13 00:10:04;;;;;;;15.88;7.00;;;;;;;4.98;56.16;98018.72;4991448;28;20037;-68
2023/03/13 00:12:29;;;;;;;11.80;5.78;;;;;;;4.99;55.97;98027.66;4990879;28;20029;-66
2023/03/13 00:14:55;;;;;;;18.20;7.30;;;;;;;5.00;56.12;98027.41;4991216;28;20022;-68
2023/03/13 00:17:20;;;;;;;20.80;8.90;;;;;;;4.99;56.66;98023.06;4988070;28;20038;-66
2023/03/13 00:19:46;;;;;;;30.30;9.93;;;;;;;5.01;56.61;98018.19;4971443;28;20049;-67
2023/03/13 00:22:11;;;;;;;18.77;7.47;;;;;;;5.03;56.79;98004.31;4971465;28;20463;-67
2023/03/13 00:24:36;;;;;;;17.95;7.43;;;;;;;5.02;56.28;98016.25;4971318;28;20061;-67
2023/03/13 00:27:03;;;;;;;13.63;6.28;;;;;;;5.04;56.33;98009.50;4970694;28;20546;-67
2023/03/13 00:29:31;;;;;;;11.18;5.43;;;;;;;5.02;56.62;98008.94;4971038;28;20058;-66
2023/03/13 00:31:56;;;;;;;10.80;5.50;;;;;;;5.03;56.79;98001.59;4971253;28;20030;-67
2023/03/13 00:34:22;;;;;;;13.25;6.30;;;;;;;5.02;56.43;98008.94;4971346;28;20033;-66
2023/03/13 00:36:48;;;;;;;14.57;6.38;;;;;;;5.00;56.89;98000.25;4969836;28;20523;-66
2023/03/13 00:39:13;;;;;;;15.50;7.00;;;;;;;5.01;56.78;98010.03;4970298;28;20027;-66
2023/03/13 00:41:38;;;;;;;12.88;6.40;;;;;;;5.03;57.09;97996.16;4970100;28;20061;-67
2023/03/13 00:44:04;;;;;;;13.48;6.07;;;;;;;5.04;57.62;97987.75;4971279;28;20026;-67
2023/03/13 00:46:30;;;;;;;25.33;11.00;;;;;;;5.03;57.44;97994.25;4970063;28;20031;-67
2023/03/13 00:48:55;;;;;;;9.38;5.70;;;;;;;5.02;57.64;97989.09;4989896;28;20034;-66
2023/03/13 00:51:25;;;;;;;11.38;5.90;;;;;;;5.01;58.06;97982.84;4990463;28;20044;-67
2023/03/13 00:53:51;;;;;;;14.68;6.20;;;;;;;4.98;58.14;97980.66;4990609;28;20065;-67
2023/03/13 00:56:19;;;;;;;14.68;6.65;;;;;;;4.97;58.60;97975.50;4990272;28;20061;-67
2023/03/13 00:58:45;;;;;;;19.13;8.00;;;;;;;4.96;58.08;97971.13;4990169;28;20022;-67
2023/03/13 01:01:14;;;;;;;11.63;6.07;;;;;;;4.94;59.00;97979.56;4974993;28;20117;-67
2023/03/13 01:03:41;;;;;;;11.80;6.43;;;;;;;4.92;58.54;97989.91;4971164;28;20031;-67
2023/03/13 01:06:09;;;;;;;10.63;5.65;;;;;;;4.92;58.79;97998.06;4971158;28;20391;-66
2023/03/13 01:08:35;;;;;;;11.05;5.88;;;;;;;4.95;58.99;97994.78;4970865;28;20023;-66
2023/03/13 01:11:10;;;;;;;9.30;5.63;;;;;;;4.96;59.13;97993.72;4970703;28;20038;-67
2023/03/13 01:13:36;;;;;;;16.70;7.28;;;;;;;4.96;58.95;97980.13;4971187;28;20035;-67
2023/03/13 01:16:06;;;;;;;14.15;7.10;;;;;;;4.99;59.60;97987.75;4970622;28;20093;-66
2023/03/13 01:18:36;;;;;;;9.48;6.30;;;;;;;4.99;60.38;97990.47;4970553;28;20387;-67
2023/03/13 01:21:03;;;;;;;9.55;4.97;;;;;;;5.01;59.79;97998.31;4976050;28;20093;-66
2023/03/13 01:23:28;;;;;;;7.40;4.72;;;;;;;5.03;60.23;98004.31;4971140;28;20026;-67
2023/03/13 01:25:55;;;;;;;9.10;4.90;;;;;;;5.04;59.88;98006.78;4970405;28;20090;-67
2023/03/13 01:28:21;;;;;;;11.43;6.18;;;;;;;5.06;60.33;98001.03;4986551;28;20434;-67
2023/03/13 01:30:47;;;;;;;8.13;4.88;;;;;;;5.07;60.48;98006.22;4989821;28;20093;-67
2023/03/13 01:33:12;;;;;;;10.93;5.95;;;;;;;5.10;60.73;97993.16;4990151;28;20038;-67
2023/03/13 01:35:37;;;;;;;10.48;5.13;;;;;;;5.09;60.44;97997.00;4990246;28;20038;-67
2023/03/13 01:38:03;;;;;;;7.05;4.60;;;;;;;5.13;60.69;97995.34;4989536;28;20030;-67
2023/03/13 01:40:28;;;;;;;7.43;4.60;;;;;;;5.14;60.98;97996.97;4974561;28;20033;-66
2023/03/13 01:42:59;;;;;;;7.05;4.80;;;;;;;5.14;60.86;97997.78;4970369;28;20065;-66
2023/03/13 01:45:57;;;;;;;6.20;4.13;;;;;;;5.13;60.73;97992.63;4970350;28;20023;-67
2023/03/13 01:48:50;;;;;;;7.25;5.28;;;;;;;5.17;60.62;97991.81;4970621;28;20049;-66
2023/03/13 01:51:22;;;;;;;6.60;4.55;;;;;;;5.19;61.43;97991.53;4959144;28;20065;-67
2023/03/13 01:53:55;;;;;;;9.27;5.30;;;;;;;5.19;61.41;97997.78;4971845;28;20039;-67
2023/03/13 01:56:26;;;;;;;7.78;4.75;;;;;;;5.19;61.64;97984.19;4989653;28;20031;-66
2023/03/13 01:58:54;;;;;;;6.13;4.70;;;;;;;5.19;61.70;97986.91;4992111;28;20037;-67
2023/03/13 02:01:20;;;;;;;8.15;5.43;;;;;;;5.18;62.19;97988.00;4990264;28;20841;-66
2023/03/13 02:03:48;;;;;;;8.85;5.57;;;;;;;5.19;62.16;97976.03;4974562;28;20087;-67
2023/03/13 02:06:14;;;;;;;8.02;4.22;;;;;;;5.20;62.37;97983.13;4972872;28;20019;-66
2023/03/13 02:08:48;;;;;;;6.68;4.45;;;;;;;5.23;62.62;97984.47;4973456;28;20391;-67
2023/03/13 02:11:50;;;;;;;7.10;4.93;;;;;;;5.22;62.44;97990.97;4973732;28;20031;-66
2023/03/13 02:14:19;;;;;;;5.88;4.50;;;;;;;5.24;62.20;97994.25;4993034;28;20037;-67
2023/03/13 02:16:47;;;;;;;6.07;4.03;;;;;;;5.26;62.08;98004.88;4992433;28;20023;-67
2023/03/13 02:19:23;;;;;;;6.75;4.15;;;;;;;5.28;62.47;98005.41;4992312;28;20084;-67
2023/03/13 02:22:05;;;;;;;6.40;4.30;;;;;;;5.28;62.83;98010.84;4972782;28;20415;-66
2023/03/13 02:24:46;;;;;;;4.53;4.05;;;;;;;5.29;63.05;98007.03;4971632;28;20454;-67
2023/03/13 02:27:12;;;;;;;6.30;4.25;;;;;;;5.30;63.51;98009.47;4972876;28;20031;-67
2023/03/13 02:29:37;;;;;;;5.93;4.30;;;;;;;5.29;63.35;98012.47;4973666;28;20053;-67
2023/03/13 02:32:03;;;;;;;6.90;4.32;;;;;;;5.31;63.45;98010.28;4972179;28;20415;-67
2023/03/13 02:34:33;;;;;;;5.80;4.47;;;;;;;5.30;63.55;98006.75;4977697;28;20042;-67
2023/03/13 02:37:00;;;;;;;7.45;4.60;;;;;;;5.32;63.48;98014.63;4990556;28;20030;-67
2023/03/13 02:39:29;;;;;;;6.00;4.63;;;;;;;5.32;63.44;98014.63;4992645;28;20033;-66
2023/03/13 02:41:54;;;;;;;6.30;4.28;;;;;;;5.34;63.45;98020.63;4992889;28;20116;-66
2023/03/13 02:44:20;;;;;;;6.22;4.32;;;;;;;5.34;63.54;98017.88;4972529;28;20125;-67
2023/03/13 02:46:54;;;;;;;5.72;4.00;;;;;;;5.35;63.90;98016.81;4972774;28;20468;-66
2023/03/13 02:49:29;;;;;;;7.13;4.68;;;;;;;5.34;64.20;98016.00;4972434;28;20861;-67
2023/03/13 02:52:02;;;;;;;6.00;4.05;;;;;;;5.35;64.11;98017.63;4973407;28;20030;-67
2023/03/13 02:54:31;;;;;;;6.68;4.45;;;;;;;5.36;63.83;98030.16;4973203;28;20499;-66
2023/03/13 02:57:01;;;;;;;5.60;4.45;;;;;;;5.36;63.66;98027.44;4971891;28;20034;-67
2023/03/13 02:59:26;;;;;;;6.03;4.88;;;;;;;5.39;64.10;98031.50;4972779;28;20019;-67
2023/03/13 03:01:52;;;;;;;7.47;5.63;;;;;;;5.41;64.34;98025.78;4973014;28;20058;-67
2023/03/13 03:04:26;;;;;;;7.40;5.03;;;;;;;5.41;64.23;98025.78;4973258;28;20506;-67
2023/03/13 03:06:52;;;;;;;6.90;5.40;;;;;;;5.43;63.59;98029.06;4972355;28;20399;-67
2023/03/13 03:09:20;;;;;;;5.13;4.18;;;;;;;5.45;64.80;98027.69;4972791;28;20518;-67
2023/03/13 03:11:46;;;;;;;5.55;3.90;;;;;;;5.46;64.80;98029.31;4972769;28;20074;-68
2023/03/13 03:14:12;;;;;;;7.18;4.43;;;;;;;5.47;64.71;98030.16;4985695;28;20434;-68
2023/03/13 03:16:38;;;;;;;6.30;4.68;;;;;;;5.48;64.80;98023.63;4979945;28;20030;-68
2023/03/13 03:19:05;;;;;;;6.68;5.10;;;;;;;5.49;65.11;98030.69;4972762;28;20391;-67
2023/03/13 03:21:31;;;;;;;7.13;4.75;;;;;;;5.50;65.01;98030.41;4972745;28;20039;-67
2023/03/13 03:23:56;;;;;;;7.57;5.18;;;;;;;5.51;65.29;98032.03;4972280;28;20034;-68
2023/03/13 03:26:21;;;;;;;8.73;6.07;;;;;;;5.55;64.57;98026.84;4971860;28;20058;-67
2023/03/13 03:28:47;;;;;;;9.38;5.63;;;;;;;5.59;64.59;98022.50;4972048;28;20490;-68
2023/03/13 03:31:14;;;;;;;7.25;4.32;;;;;;;5.64;65.13;98018.97;4989569;28;20026;-68
2023/03/13 03:33:40;;;;;;;8.50;4.47;;;;;;;5.65;65.02;98032.28;4992080;28;20030;-67
2023/03/13 03:36:11;;;;;;;6.97;4.50;;;;;;;5.68;64.86;98030.94;4991602;28;20034;-68
2023/03/13 03:38:38;;;;;;;7.20;4.43;;;;;;;5.71;65.08;98018.69;4980294;28;20044;-68
2023/03/13 03:41:04;;;;;;;8.07;5.13;;;;;;;5.72;65.38;98012.94;4972493;28;20038;-68
2023/03/13 03:43:30;;;;;;;6.90;5.30;;;;;;;5.73;65.60;98016.50;4972494;28;20055;-68
2023/03/13 03:45:55;;;;;;;6.38;4.63;;;;;;;5.74;65.34;98012.69;4972686;28;20096;-68
2023/03/13 03:48:21;;;;;;;6.00;4.20;;;;;;;5.73;65.59;98009.13;4972200;28;20031;-68
2023/03/13 03:50:46;;;;;;;6.05;4.82;;;;;;;5.75;65.80;98014.31;4972436;28;20448;-68
2023/03/13 03:53:12;;;;;;;8.95;6.45;;;;;;;5.76;65.98;98018.66;4972249;28;20031;-68
2023/03/13 03:55:37;;;;;;;10.98;8.35;;;;;;;5.77;65.46;98012.94;4972195;28;20093;-68
2023/03/13 03:58:03;;;;;;;5.78;4.30;;;;;;;5.78;65.68;98013.78;4971544;28;20038;-67
2023/03/13 04:00:28;;;;;;;7.70;4.90;;;;;;;5.80;66.23;98008.88;4972090;28;20035;-67
2023/03/13 04:02:55;;;;;;;7.25;4.85;;;;;;;5.78;66.06;98016.50;4984170;28;20104;-68
2023/03/13 04:05:21;;;;;;;6.97;4.93;;;;;;;5.77;66.21;98012.13;4972428;28;20453;-68
2023/03/13 04:07:47;;;;;;;7.30;4.30;;;;;;;5.77;65.97;98004.78;4970193;28;20058;-68
2023/03/13 04:10:12;;;;;;;6.90;4.22;;;;;;;5.78;65.76;98009.13;4972317;28;20054;-68
2023/03/13 04:12:38;;;;;;;6.63;4.13;;;;;;;5.79;66.63;98009.97;4985414;28;20566;-68
2023/03/13 04:15:04;;;;;;;7.28;4.40;;;;;;;5.81;66.22;98013.22;4971971;28;20029;-68
2023/03/13 04:17:30;;;;;;;7.95;4.40;;;;;;;5.82;65.99;98014.84;4970361;28;20114;-68
2023/03/13 04:19:55;;;;;;;8.60;4.53;;;;;;;5.85;66.62;98016.19;4971451;28;20019;-67
2023/03/13 04:22:20;;;;;;;6.47;4.65;;;;;;;5.84;66.09;98007.22;4971248;28;20031;-68
2023/03/13 04:24:46;;;;;;;6.28;4.53;;;;;;;5.85;66.47;98003.41;4974273;28;20403;-68
2023/03/13 04:27:11;;;;;;;5.75;4.03;;;;;;;5.87;66.74;98000.41;4990578;28;20065;-68
2023/03/13 04:29:37;;;;;;;6.78;4.45;;;;;;;5.86;66.36;98007.78;4991032;28;20022;-68
2023/03/13 04:32:03;;;;;;;7.53;4.25;;;;;;;5.87;66.02;98006.69;4990874;28;20101;-67
2023/03/13 04:34:28;;;;;;;9.13;3.90;;;;;;;5.87;66.49;98000.41;4991041;28;20034;-68
2023/03/13 04:36:54;;;;;;;8.20;4.65;;;;;;;5.87;66.24;98009.41;4990307;28;20524;-68
2023/03/13 04:39:24;;;;;;;8.85;5.00;;;;;;;5.89;66.00;98006.38;4986977;28;20034;-68
2023/03/13 04:41:49;;;;;;;;;;;;;;;5.91;65.93;98006.94;4971689;28;20080;-68
2023/03/13 04:44:14;;;;;;;8.45;4.55;;;;;;;5.91;65.94;98013.16;4971455;28;19925;-68
2023/03/13 04:46:40;;;;;;;7.15;5.03;;;;;;;5.91;66.14;97996.84;4970869;28;20058;-68
2023/03/13 04:49:05;;;;;;;6.70;4.93;;;;;;;5.90;65.93;97995.25;4971115;28;20027;-68
2023/03/13 04:51:31;;;;;;;10.32;4.85;;;;;;;5.90;66.18;97992.53;4971254;28;20494;-68
2023/03/13 04:53:56;;;;;;;8.32;4.43;;;;;;;5.87;66.32;97990.34;4982194;28;20031;-68
2023/03/13 04:56:24;;;;;;;6.20;4.03;;;;;;;5.87;66.09;97995.78;4990290;28;20026;-68
2023/03/13 04:58:50;;;;;;;7.97;4.65;;;;;;;5.87;66.38;97990.34;4989989;28;20018;-68
2023/03/13 05:01:15;;;;;;;7.18;4.30;;;;;;;5.85;66.24;97997.16;4975243;28;20039;-68
2023/03/13 05:03:41;;;;;;;6.22;4.22;;;;;;;5.82;66.49;97996.59;4976908;28;20019;-68
2023/03/13 05:06:06;;;;;;;5.65;4.28;;;;;;;5.81;66.41;97992.25;4971383;28;20019;-68
2023/03/13 05:08:32;;;;;;;7.82;4.63;;;;;;;5.81;66.42;97996.91;4971491;28;20089;-67
2023/03/13 05:10:57;;;;;;;7.10;4.40;;;;;;;5.80;66.69;97989.81;4971112;28;20498;-68
2023/03/13 05:13:22;;;;;;;7.40;5.22;;;;;;;5.79;66.02;98002.59;4987867;28;20062;-68
2023/03/13 05:15:48;;;;;;;9.75;5.60;;;;;;;5.81;66.14;98002.34;4990556;28;20026;-67
2023/03/13 05:18:13;;;;;;;7.90;5.15;;;;;;;5.81;66.44;98000.41;4990287;28;20081;-69
2023/03/13 05:20:39;;;;;;;9.20;5.00;;;;;;;5.83;66.22;98000.16;4978522;28;20380;-67
2023/03/13 05:23:04;;;;;;;10.02;5.07;;;;;;;5.85;66.69;97999.88;4971074;28;20382;-68
2023/03/13 05:25:30;;;;;;;8.00;4.78;;;;;;;5.85;66.67;97999.88;4970943;28;20572;-68
2023/03/13 05:27:55;;;;;;;9.50;5.85;;;;;;;5.85;66.27;98002.59;4970427;28;20031;-68
2023/03/13 05:30:21;;;;;;;11.57;8.20;;;;;;;5.86;66.55;97991.44;4971113;28;20118;-67
2023/03/13 05:32:46;;;;;;;10.75;5.82;;;;;;;5.88;66.37;97997.41;4971441;28;20023;-67
2023/03/13 05:35:11;;;;;;;8.50;5.60;;;;;;;5.90;66.32;98000.69;4975244;28;20074;-68
2023/03/13 05:37:37;;;;;;;8.05;5.28;;;;;;;5.91;66.55;97996.03;4974276;28;20031;-68
2023/03/13 05:40:03;;;;;;;12.65;6.45;;;;;;;5.93;66.54;98000.09;4974971;28;20022;-68
2023/03/13 05:42:28;;;;;;;9.93;6.05;;;;;;;5.95;66.82;97995.19;4974652;28;20026;-68
2023/03/13 05:44:54;;;;;;;9.75;6.07;;;;;;;5.95;66.35;97991.69;4974394;28;20027;-68
2023/03/13 05:47:19;;;;;;;8.27;5.78;;;;;;;5.98;66.34;97982.97;4974151;28;20077;-68
2023/03/13 05:49:44;;;;;;;8.13;5.30;;;;;;;6.00;65.95;97975.34;4975074;28;20102;-68
2023/03/13 05:52:10;;;;;;;10.02;5.93;;;;;;;6.06;66.68;97976.16;4974659;28;20568;-68
2023/03/13 05:54:35;;;;;;;14.48;8.38;;;;;;;6.07;66.50;97975.06;4974300;28;20027;-68
2023/03/13 05:57:00;;;;;;;12.65;7.50;;;;;;;6.10;66.61;97975.31;4973774;28;20035;-68
2023/03/13 05:59:26;;;;;;;10.80;6.20;;;;;;;6.14;66.61;97974.75;4974655;28;20031;-68
2023/03/13 06:01:51;;;;;;;30.95;14.20;;;;;;;6.16;66.35;97967.94;4974408;28;20059;-68
2023/03/13 06:04:17;;;;;;;31.80;13.27;;;;;;;6.20;66.20;97968.19;4976824;28;20558;-68
2023/03/13 06:06:42;;;;;;;22.52;9.95;;;;;;;6.24;66.39;97971.97;4993260;28;20042;-68
2023/03/13 06:09:10;;;;;;;23.48;10.63;;;;;;;6.29;66.12;97960.25;4993505;28;20419;-68
2023/03/13 06:11:36;;;;;;;19.55;9.38;;;;;;;6.34;66.55;97971.94;4993548;28;20054;-68
2023/03/13 06:14:01;;;;;;;21.42;10.77;;;;;;;6.38;66.45;97966.72;4993175;28;20113;-68
2023/03/13 06:16:26;;;;;;;17.30;9.10;;;;;;;6.40;66.60;97972.72;4992621;28;20113;-67
2023/03/13 06:18:52;;;;;;;12.80;7.05;;;;;;;6.47;66.94;97972.41;4986149;28;20027;-68
2023/03/13 06:21:17;;;;;;;13.07;8.40;;;;;;;6.52;66.26;97967.75;4973791;28;20035;-68
2023/03/13 06:23:42;;;;;;;9.48;6.60;;;;;;;6.59;66.58;97967.41;4975390;28;20034;-68
2023/03/13 06:26:08;;;;;;;11.85;7.28;;;;;;;6.67;66.50;97963.31;4993056;28;20039;-68
2023/03/13 06:28:33;;;;;;;9.23;5.80;;;;;;;6.74;66.16;97960.25;4991918;28;20037;-68
2023/03/13 06:31:04;;;;;;;11.65;6.28;;;;;;;6.79;66.27;97952.84;4993359;28;20022;-68
2023/03/13 06:33:30;;;;;;;11.68;6.90;;;;;;;6.85;65.88;97964.53;4993579;28;20560;-68
2023/03/13 06:35:56;;;;;;;10.95;5.63;;;;;;;6.89;65.85;97962.88;4992853;28;20030;-68
2023/03/13 06:38:23;;;;;;;10.40;6.63;;;;;;;6.93;66.02;97953.00;4993122;28;20085;-68
2023/03/13 06:40:48;;;;;;;8.63;6.13;;;;;;;6.97;65.96;97950.53;4993243;28;20407;-68
2023/03/13 06:43:14;;;;;;;10.73;5.85;;;;;;;7.00;65.98;97952.69;4977176;28;20084;-68
2023/03/13 06:45:39;;;;;;;11.68;6.95;;;;;;;7.05;65.86;97947.22;4972247;28;20022;-68
2023/03/13 06:48:04;;;;;;;10.05;6.20;;;;;;;7.09;65.88;97953.72;4971030;28;20030;-68
2023/03/13 06:50:30;;;;;;;13.88;7.72;;;;;;;7.12;65.87;97953.16;4972832;28;20030;-67
2023/03/13 06:52:56;;;;;;;9.70;6.75;;;;;;;7.15;66.09;97947.09;4972631;28;20043;-65
2023/03/13 06:55:22;;;;;;;11.23;8.35;;;;;;;7.17;66.19;97938.66;4972416;28;20114;-66
2023/03/13 06:57:52;;;;;;;11.32;6.70;;;;;;;7.19;65.89;97939.19;4969968;28;20479;-65
2023/03/13 07:00:19;;;;;;;11.50;6.55;;;;;;;7.20;66.26;97946.25;4973861;28;20035;-65
2023/03/13 07:02:44;;;;;;;11.02;6.55;;;;;;;7.18;65.61;97943.00;4969605;28;20161;-66
2023/03/13 07:05:10;;;;;;;8.95;6.03;;;;;;;7.17;65.77;97949.56;4967395;28;20106;-66
2023/03/13 07:07:35;;;;;;;10.13;6.20;;;;;;;7.15;65.69;97946.31;4971388;28;20034;-66
2023/03/13 07:10:01;;;;;;;12.45;5.50;;;;;;;7.14;65.75;97940.00;4971978;28;20035;-67
2023/03/13 07:12:26;;;;;;;15.00;7.30;;;;;;;7.19;65.80;97943.81;4972688;28;20043;-65
2023/03/13 07:14:52;;;;;;;13.65;7.03;;;;;;;7.23;65.86;97932.06;4970907;28;20672;-68
2023/03/13 07:17:17;;;;;;;11.35;5.63;;;;;;;7.27;65.95;97938.56;4970086;28;20114;-67
2023/03/13 07:19:43;;;;;;;8.63;5.25;;;;;;;7.33;66.25;97936.59;4973441;28;20031;-67
2023/03/13 07:22:08;;;;;;;11.13;5.80;;;;;;;7.37;65.86;97913.09;4969536;28;20031;-66
2023/03/13 07:24:33;;;;;;;8.93;5.63;;;;;;;7.43;65.55;97909.22;4971981;28;20129;-67
2023/03/13 07:26:59;;;;;;;11.68;5.53;;;;;;;7.51;65.96;97913.22;4972071;28;20484;-68
2023/03/13 07:29:24;;;;;;;26.33;9.90;;;;;;;7.63;65.82;97917.47;4971813;28;20034;-67
2023/03/13 07:31:50;;;;;;;22.20;8.10;;;;;;;7.73;65.93;97912.69;4970541;28;20030;-66
2023/03/13 07:34:15;;;;;;;13.85;6.10;;;;;;;7.86;65.68;97904.91;4970892;28;20129;-66
2023/03/13 07:36:40;;;;;;;11.32;5.68;;;;;;;7.98;65.55;97910.75;4978347;28;20045;-66
2023/03/13 07:39:07;;;;;;;9.43;5.22;;;;;;;8.09;65.91;97894.22;4980709;28;20512;-66
2023/03/13 07:41:33;;;;;;;11.45;5.55;;;;;;;8.19;65.40;97894.91;4970713;28;20034;-66
2023/03/13 07:43:58;;;;;;;9.80;5.00;;;;;;;8.29;64.98;97893.97;4966584;28;20035;-66
2023/03/13 07:46:24;;;;;;;11.80;5.50;;;;;;;8.38;65.05;97885.06;4970700;28;20026;-66
2023/03/13 07:48:51;;;;;;;10.45;5.72;;;;;;;8.49;64.57;97884.69;4968303;28;20479;-66
2023/03/13 07:51:23;;;;;;;9.18;4.65;;;;;;;8.58;65.12;97882.09;4970811;28;20026;-67
2023/03/13 07:53:49;;;;;;;10.38;4.72;;;;;;;8.67;64.36;97884.16;4971974;28;20471;-67
2023/03/13 07:56:22;;;;;;;11.65;4.80;;;;;;;8.72;64.30;97876.66;4970068;28;20027;-67
2023/03/13 07:58:49;;;;;;;9.90;5.00;;;;;;;8.79;64.56;97873.53;4967897;28;20238;-67
2023/03/13 08:01:19;;;;;;;9.07;4.50;;;;;;;8.83;63.51;97874.56;4967177;28;20412;-67
2023/03/13 08:03:49;;;;;;;6.97;4.40;;;;;;;8.90;63.48;97899.59;4971167;28;20022;-65
2023/03/13 08:06:17;;;;;;;8.63;4.22;;;;;;;8.93;63.66;97885.34;4971781;28;20022;-66
2023/03/13 08:08:43;;;;;;;8.27;3.97;;;;;;;8.98;63.09;97883.63;4974206;28;20088;-67
2023/03/13 08:11:16;;;;;;;7.60;4.82;;;;;;;9.12;63.63;97892.69;4970244;28;20023;-66
2023/03/13 08:13:42;;;;;;;9.60;4.10;;;;;;;9.25;63.26;97888.34;4983440;28;20591;-66
2023/03/13 08:16:16;;;;;;;8.25;4.20;;;;;;;9.31;62.17;97884.41;4966398;28;20039;-66
2023/03/13 08:18:44;;;;;;;8.20;4.15;;;;;;;9.37;63.00;97879.66;4967308;28;20047;-66
2023/03/13 08:21:12;;;;;;;8.07;4.22;;;;;;;9.44;62.79;97890.19;4969564;28;20114;-66
2023/03/13 08:23:38;;;;;;;9.05;4.30;;;;;;;9.54;62.43;97881.78;4969550;28;20038;-67
2023/03/13 08:26:12;;;;;;;11.93;4.57;;;;;;;9.62;62.17;97888.47;4970057;28;20046;-67
2023/03/13 08:28:38;;;;;;;7.82;4.07;;;;;;;9.70;61.60;97876.03;4971872;28;20046;-66
2023/03/13 08:31:21;;;;;;;7.43;3.72;;;;;;;9.81;61.93;97871.94;4970418;28;20499;-67
2023/03/13 08:33:47;;;;;;;7.57;3.97;;;;;;;9.93;61.18;97877.72;4977336;28;20035;-67
2023/03/13 08:36:12;;;;;;;7.13;3.20;;;;;;;10.03;60.68;97878.63;4976969;28;20437;-67
2023/03/13 08:38:41;;;;;;;8.07;4.25;;;;;;;10.07;60.29;97869.47;4970146;28;20030;-67
2023/03/13 08:41:07;;;;;;;7.93;3.22;;;;;;;10.08;60.31;97868.34;4970363;28;20090;-66
2023/03/13 08:43:32;;;;;;;7.07;3.53;;;;;;;10.07;60.30;97872.22;4970890;28;20426;-67
2023/03/13 08:45:57;;;;;;;7.30;3.70;;;;;;;10.07;60.28;97866.72;4970552;28;20114;-66
2023/03/13 08:48:23;;;;;;;6.97;3.40;;;;;;;10.06;60.45;97873.31;4970425;28;20391;-67
2023/03/13 08:50:59;;;;;;;7.47;3.58;;;;;;;10.05;59.99;97868.16;4970966;28;20109;-67
2023/03/13 08:53:25;;;;;;;9.88;3.80;;;;;;;10.04;59.57;97872.81;4971161;28;20454;-66
2023/03/13 08:55:53;;;;;;;7.15;3.55;;;;;;;10.03;60.33;97862.19;4971001;28;20035;-67
2023/03/13 08:58:19;;;;;;;9.20;3.72;;;;;;;10.09;60.11;97860.97;4970654;28;20483;-67
2023/03/13 09:00:44;;;;;;;11.07;3.80;;;;;;;10.12;59.68;97865.81;4971383;28;20157;-67
2023/03/13 09:03:10;;;;;;;8.18;4.00;;;;;;;10.18;59.88;97853.63;4971303;28;20050;-67
2023/03/13 09:05:36;;;;;;;6.78;3.70;;;;;;;10.23;60.59;97852.69;4970666;28;20058;-67
2023/03/13 09:08:02;;;;;;;7.15;3.70;;;;;;;10.32;59.85;97847.28;4968537;28;20161;-67
2023/03/13 09:10:27;;;;;;;9.05;3.75;;;;;;;10.39;59.62;97853.97;4970107;28;20113;-67
2023/03/13 09:12:53;;;;;;;10.68;3.45;;;;;;;10.45;59.73;97857.44;4970463;28;20035;-67
2023/03/13 09:15:18;;;;;;;9.13;3.50;;;;;;;10.50;59.39;97840.88;4970026;28;20027;-68
2023/03/13 09:17:43;;;;;;;7.85;3.20;;;;;;;10.55;58.36;97845.41;4970359;28;20434;-67
2023/03/13 09:20:09;;;;;;;7.10;3.20;;;;;;;10.57;59.35;97837.69;4970046;28;20031;-67
2023/03/13 09:22:35;;;;;;;8.57;3.25;;;;;;;10.63;59.37;97838.34;4969763;28;20089;-67
2023/03/13 09:25:00;;;;;;;9.40;3.00;;;;;;;10.68;59.37;97835.50;4969263;28;20043;-67
2023/03/13 09:27:27;;;;;;;6.18;2.63;;;;;;;10.79;59.00;97836.06;4969828;28;20656;-67
2023/03/13 09:29:53;;;;;;;5.95;3.05;;;;;;;10.90;58.13;97833.88;4969269;28;20387;-66
2023/03/13 09:32:19;;;;;;;5.22;2.70;;;;;;;11.03;57.50;97827.47;4970087;28;20042;-68
2023/03/13 09:34:45;;;;;;;5.07;2.92;;;;;;;11.19;58.27;97840.78;4969174;28;20030;-68
2023/03/13 09:37:11;;;;;;;5.25;2.60;;;;;;;11.34;57.27;97828.59;4969070;28;20031;-66
2023/03/13 09:39:36;;;;;;;7.10;2.97;;;;;;;11.45;56.34;97832.66;4968559;28;20086;-66
2023/03/13 09:42:38;;;;;;;7.13;2.45;;;;;;;11.51;56.19;97822.34;4968537;28;20081;-66
2023/03/13 09:45:21;;;;;;;10.30;2.80;;;;;;;11.55;54.94;97818.66;4967735;28;20035;-66
2023/03/13 09:47:51;;;;;;;4.82;2.33;;;;;;;11.55;56.22;97829.66;4967223;28;20560;-67
2023/03/13 09:50:28;;;;;;;6.53;2.75;;;;;;;11.53;55.17;97823.66;4968380;28;20379;-67
2023/03/13 09:52:59;;;;;;;5.93;2.63;;;;;;;11.47;54.99;97830.41;4968401;28;20555;-67
2023/03/13 09:55:31;;;;;;;7.47;2.88;;;;;;;11.38;55.25;97813.91;4968824;28;20486;-66
2023/03/13 09:58:18;;;;;;;5.28;3.03;;;;;;;11.30;55.70;97811.94;4968132;28;20436;-68
2023/03/13 10:00:50;;;;;;;5.95;3.00;;;;;;;11.28;54.76;97804.00;4968205;28;20058;-68
2023/03/13 10:03:21;;;;;;;6.25;2.85;;;;;;;11.28;55.35;97790.28;4967800;28;20027;-66
2023/03/13 10:05:54;;;;;;;10.02;4.00;;;;;;;11.32;54.88;97785.00;4965928;28;20447;-66
2023/03/13 10:08:34;;;;;;;8.48;4.10;;;;;;;11.43;56.00;97780.81;4968686;28;20018;-65
2023/03/13 10:11:08;;;;;;;;;;;;;;;11.59;54.58;97772.13;4968832;28;20035;-66
2023/03/13 10:13:39;;;;;;;8.73;3.88;;;;;;;11.66;54.11;97777.97;4968905;28;19941;-66
2023/03/13 10:16:20;;;;;;;6.70;3.40;;;;;;;11.59;54.47;97775.69;4967433;28;20038;-66
2023/03/13 10:18:52;;;;;;;8.15;3.58;;;;;;;11.61;54.56;97787.16;4966074;28;20031;-67
2023/03/13 10:21:20;;;;;;;6.43;3.28;;;;;;;11.62;54.05;97772.28;4970321;28;20105;-66
2023/03/13 10:24:19;;;;;;;6.18;3.05;;;;;;;11.64;54.44;97774.72;4971009;28;20030;-67
2023/03/13 10:26:45;;;;;;;10.23;3.00;;;;;;;11.69;54.18;97765.53;4970902;28;20042;-67
2023/03/13 10:29:22;;;;;;;6.30;2.80;;;;;;;11.71;53.70;97769.56;4970540;28;20109;-67
2023/03/13 10:31:56;;;;;;;4.70;2.45;;;;;;;11.72;53.98;97762.13;4972205;28;20094;-67
2023/03/13 10:34:22;;;;;;;6.30;2.80;;;;;;;11.76;53.38;97755.69;4972024;28;20125;-68
2023/03/13 10:36:53;;;;;;;7.68;2.90;;;;;;;11.77;52.95;97751.00;4972538;28;20575;-66
2023/03/13 10:39:22;;;;;;;8.50;2.65;;;;;;;11.79;52.91;97754.22;4972486;28;20042;-67
2023/03/13 10:41:50;;;;;;;7.15;2.70;;;;;;;11.80;52.48;97753.09;4973084;28;20395;-68
2023/03/13 10:44:19;;;;;;;5.32;2.53;;;;;;;11.80;52.87;97752.31;4987114;28;20023;-67
2023/03/13 10:46:47;;;;;;;5.20;2.45;;;;;;;11.79;53.04;97729.50;4973985;28;20577;-69
2023/03/13 10:49:18;;;;;;;7.28;3.03;;;;;;;11.90;53.76;97722.56;4970880;28;20434;-68
2023/03/13 10:51:50;;;;;;;7.13;3.67;;;;;;;12.02;53.71;97716.44;4971234;28;20030;-66
2023/03/13 10:54:23;;;;;;;7.55;3.45;;;;;;;12.11;53.76;97708.19;4971648;28;20117;-67
2023/03/13 10:56:50;;;;;;;8.23;2.60;;;;;;;12.20;52.91;97683.47;4971536;28;20118;-68
2023/03/13 10:59:26;;;;;;;7.95;3.40;;;;;;;12.28;52.72;97692.81;4978336;28;20035;-67
2023/03/13 11:01:57;;;;;;;9.63;3.75;;;;;;;12.36;52.52;97679.03;4969978;28;20101;-67
2023/03/13 11:04:32;;;;;;;8.60;4.57;;;;;;;12.42;52.92;97668.69;4970352;28;20035;-67
2023/03/13 11:07:33;;;;;;;9.18;4.03;;;;;;;12.56;52.77;97667.66;4969628;28;20046;-67
2023/03/13 11:10:19;;;;;;;8.57;4.13;;;;;;;12.62;52.19;97667.16;4969983;28;20058;-67
2023/03/13 11:12:55;;;;;;;6.10;4.32;;;;;;;12.61;52.21;97662.81;4969711;28;20050;-69
2023/03/13 11:15:38;;;;;;;8.15;2.80;;;;;;;12.60;51.67;97663.94;4970593;28;20085;-68
2023/03/13 11:18:13;;;;;;;7.50;3.15;;;;;;;12.59;51.56;97669.75;4976293;28;20061;-67
2023/03/13 11:20:42;;;;;;;7.43;3.45;;;;;;;12.59;51.48;97667.81;4971876;28;20038;-67
2023/03/13 11:23:19;;;;;;;9.10;3.78;;;;;;;12.56;50.83;97662.16;4970934;28;20053;-67
2023/03/13 11:26:06;;;;;;;9.00;4.88;;;;;;;12.54;51.66;97669.94;4971907;28;20039;-68
2023/03/13 11:28:41;;;;;;;9.65;4.40;;;;;;;12.53;51.83;97662.81;4970692;28;20043;-68
2023/03/13 11:31:30;;;;;;;9.65;3.97;;;;;;;12.53;51.95;97649.06;4971077;28;20085;-67
2023/03/13 11:34:11;;;;;;;7.97;2.90;;;;;;;12.57;52.11;97639.84;4969762;28;20055;-68
2023/03/13 11:37:01;;;;;;;9.02;3.03;;;;;;;12.61;51.41;97640.78;4970586;28;20034;-68
2023/03/13 11:39:44;;;;;;;;;;;;;;;12.59;50.44;97634.81;4970322;28;20357;-68
2023/03/13 11:42:44;;;;;;;5.82;2.35;;;;;;;12.53;50.59;97632.56;4970276;28;20471;-69